sensor_id;sensor_type;location;lat;lon;timestamp;P1;durP1;ratioP1;P2;durP2;ratioP2
71176;SDS011;58877;51.992;4.504;2022-08-03T00:01:33;233.21;;;233.21;;
71176;SDS011;58877;51.992;4.504;2022-08-03T00:03:59;288.04;;;288.03;;
71176;SDS011;58877;51.992;4.504;2022-08-03T00:06:25;312.01;;;312.01;;
71176;SDS011;58877;51.992;4.504;2022-08-03T00:08:50;331.26;;;331.26;;
71176;SDS011;58877;51.992;4.504;2022-08-03T00:11:16;354.07;;;354.07;;
71176;SDS011;58877;51.992;4.504;2022-08-03T00:13:42;313.93;;;313.93;;
71176;SDS011;58877;51.992;4.504;2022-08-03T00:16:08;358.76;;;358.76;;
71176;SDS011;58877;51.992;4.504;2022-08-03T00:18:35;386.97;;;386.97;;
71176;SDS011;58877;51.992;4.504;2022-08-03T00:21:02;363.99;;;363.99;;
71176;SDS011;58877;51.992;4.504;2022-08-03T00:23:29;287.81;;;287.81;;
71176;SDS011;58877;51.992;4.504;2022-08-03T00:25:55;265.95;;;265.95;;
71176;SDS011;58877;51.992;4.504;2022-08-03T00:28:21;313.10;;;313.10;;
71176;SDS011;58877;51.992;4.504;2022-08-03T00:30:47;308.12;;;308.12;;
71176;SDS011;58877;51.992;4.504;2022-08-03T00:33:12;372.17;;;372.17;;
71176;SDS011;58877;51.992;4.504;2022-08-03T00:35:38;472.50;;;472.50;;
71176;SDS011;58877;51.992;4.504;2022-08-03T00:38:04;394.10;;;394.10;;
71176;SDS011;58877;51.992;4.504;2022-08-03T00:40:29;349.82;;;349.82;;
71176;SDS011;58877;51.992;4.504;2022-08-03T00:42:56;308.86;;;308.86;;
71176;SDS011;58877;51.992;4.504;2022-08-03T00:45:24;217.49;;;217.49;;
71176;SDS011;58877;51.992;4.504;2022-08-03T00:47:53;186.22;;;186.22;;
71176;SDS011;58877;51.992;4.504;2022-08-03T00:50:19;234.64;;;234.64;;
71176;SDS011;58877;51.992;4.504;2022-08-03T00:52:47;239.29;;;239.29;;
71176;SDS011;58877;51.992;4.504;2022-08-03T00:55:14;232.64;;;232.64;;
71176;SDS011;58877;51.992;4.504;2022-08-03T00:57:41;228.85;;;228.85;;
71176;SDS011;58877;51.992;4.504;2022-08-03T01:00:08;252.51;;;252.51;;
71176;SDS011;58877;51.992;4.504;2022-08-03T01:02:37;158.97;;;158.97;;
71176;SDS011;58877;51.992;4.504;2022-08-03T01:05:04;176.12;;;176.12;;
71176;SDS011;58877;51.992;4.504;2022-08-03T01:12:47;145.07;;;145.07;;
71176;SDS011;58877;51.992;4.504;2022-08-03T01:18:38;133.20;;;133.20;;
71176;SDS011;58877;51.992;4.504;2022-08-03T01:21:19;131.24;;;131.24;;
71176;SDS011;58877;51.992;4.504;2022-08-03T01:32:20;122.05;;;122.05;;
71176;SDS011;58877;51.992;4.504;2022-08-03T01:35:11;112.74;;;112.74;;
71176;SDS011;58877;51.992;4.504;2022-08-03T01:37:42;115.20;;;115.20;;
71176;SDS011;58877;51.992;4.504;2022-08-03T01:40:20;138.15;;;138.15;;
71176;SDS011;58877;51.992;4.504;2022-08-03T01:42:49;148.52;;;148.52;;
71176;SDS011;58877;51.992;4.504;2022-08-03T01:45:17;159.21;;;159.21;;
71176;SDS011;58877;51.992;4.504;2022-08-03T01:47:46;201.91;;;201.91;;
71176;SDS011;58877;51.992;4.504;2022-08-03T01:50:17;213.53;;;213.53;;
71176;SDS011;58877;51.992;4.504;2022-08-03T01:52:46;169.31;;;169.31;;
71176;SDS011;58877;51.992;4.504;2022-08-03T01:55:13;148.54;;;148.54;;
71176;SDS011;58877;51.992;4.504;2022-08-03T01:57:42;138.35;;;138.35;;
71176;SDS011;58877;51.992;4.504;2022-08-03T02:00:12;132.57;;;132.57;;
71176;SDS011;58877;51.992;4.504;2022-08-03T02:02:39;147.62;;;147.62;;
71176;SDS011;58877;51.992;4.504;2022-08-03T02:05:08;146.07;;;146.07;;
71176;SDS011;58877;51.992;4.504;2022-08-03T02:07:36;125.22;;;125.22;;
71176;SDS011;58877;51.992;4.504;2022-08-03T02:10:05;119.73;;;119.73;;
71176;SDS011;58877;51.992;4.504;2022-08-03T02:12:33;114.07;;;114.07;;
71176;SDS011;58877;51.992;4.504;2022-08-03T02:15:02;108.38;;;108.38;;
71176;SDS011;58877;51.992;4.504;2022-08-03T02:17:28;111.40;;;111.40;;
71176;SDS011;58877;51.992;4.504;2022-08-03T02:19:58;112.64;;;112.63;;
71176;SDS011;58877;51.992;4.504;2022-08-03T02:22:25;109.42;;;109.42;;
71176;SDS011;58877;51.992;4.504;2022-08-03T02:24:53;111.01;;;111.01;;
71176;SDS011;58877;51.992;4.504;2022-08-03T02:27:20;111.65;;;111.65;;
71176;SDS011;58877;51.992;4.504;2022-08-03T02:29:57;114.05;;;114.05;;
71176;SDS011;58877;51.992;4.504;2022-08-03T02:32:30;116.14;;;116.14;;
71176;SDS011;58877;51.992;4.504;2022-08-03T02:35:00;118.27;;;118.27;;
71176;SDS011;58877;51.992;4.504;2022-08-03T02:37:30;126.43;;;126.43;;
71176;SDS011;58877;51.992;4.504;2022-08-03T02:40:01;128.89;;;128.89;;
71176;SDS011;58877;51.992;4.504;2022-08-03T02:42:33;124.01;;;124.01;;
71176;SDS011;58877;51.992;4.504;2022-08-03T02:45:00;135.19;;;135.19;;
71176;SDS011;58877;51.992;4.504;2022-08-03T02:47:29;136.86;;;136.86;;
71176;SDS011;58877;51.992;4.504;2022-08-03T02:50:02;136.90;;;136.90;;
71176;SDS011;58877;51.992;4.504;2022-08-03T02:52:31;136.85;;;136.85;;
71176;SDS011;58877;51.992;4.504;2022-08-03T02:55:01;132.74;;;132.74;;
71176;SDS011;58877;51.992;4.504;2022-08-03T02:57:28;134.64;;;134.64;;
71176;SDS011;58877;51.992;4.504;2022-08-03T02:59:58;124.41;;;124.41;;
71176;SDS011;58877;51.992;4.504;2022-08-03T03:02:25;114.77;;;114.77;;
71176;SDS011;58877;51.992;4.504;2022-08-03T03:04:53;115.63;;;115.63;;
71176;SDS011;58877;51.992;4.504;2022-08-03T03:07:20;126.95;;;126.95;;
71176;SDS011;58877;51.992;4.504;2022-08-03T03:09:46;123.38;;;123.38;;
71176;SDS011;58877;51.992;4.504;2022-08-03T03:12:12;127.60;;;127.59;;
71176;SDS011;58877;51.992;4.504;2022-08-03T03:14:40;136.84;;;136.84;;
71176;SDS011;58877;51.992;4.504;2022-08-03T03:17:06;159.20;;;159.20;;
71176;SDS011;58877;51.992;4.504;2022-08-03T03:19:34;166.18;;;166.18;;
71176;SDS011;58877;51.992;4.504;2022-08-03T03:22:03;155.05;;;155.05;;
71176;SDS011;58877;51.992;4.504;2022-08-03T03:24:32;182.58;;;182.58;;
71176;SDS011;58877;51.992;4.504;2022-08-03T03:27:00;186.35;;;186.35;;
71176;SDS011;58877;51.992;4.504;2022-08-03T03:29:27;177.02;;;177.02;;
71176;SDS011;58877;51.992;4.504;2022-08-03T03:31:56;157.83;;;157.83;;
71176;SDS011;58877;51.992;4.504;2022-08-03T03:34:22;186.04;;;186.04;;
71176;SDS011;58877;51.992;4.504;2022-08-03T03:36:48;191.49;;;191.49;;
71176;SDS011;58877;51.992;4.504;2022-08-03T03:39:14;197.55;;;197.55;;
71176;SDS011;58877;51.992;4.504;2022-08-03T03:41:40;169.56;;;169.56;;
71176;SDS011;58877;51.992;4.504;2022-08-03T03:44:05;174.39;;;174.39;;
71176;SDS011;58877;51.992;4.504;2022-08-03T03:46:31;158.18;;;158.18;;
71176;SDS011;58877;51.992;4.504;2022-08-03T03:51:25;178.50;;;178.50;;
71176;SDS011;58877;51.992;4.504;2022-08-03T03:53:57;171.36;;;171.36;;
71176;SDS011;58877;51.992;4.504;2022-08-03T03:56:23;179.86;;;179.86;;
71176;SDS011;58877;51.992;4.504;2022-08-03T03:58:50;236.21;;;236.21;;
71176;SDS011;58877;51.992;4.504;2022-08-03T04:01:15;169.29;;;169.29;;
71176;SDS011;58877;51.992;4.504;2022-08-03T04:03:41;159.34;;;159.34;;
71176;SDS011;58877;51.992;4.504;2022-08-03T04:06:07;150.79;;;150.79;;
71176;SDS011;58877;51.992;4.504;2022-08-03T04:08:51;180.47;;;180.47;;
71176;SDS011;58877;51.992;4.504;2022-08-03T04:11:36;160.68;;;160.68;;
71176;SDS011;58877;51.992;4.504;2022-08-03T04:14:05;154.99;;;154.99;;
71176;SDS011;58877;51.992;4.504;2022-08-03T04:16:36;152.26;;;152.26;;
71176;SDS011;58877;51.992;4.504;2022-08-03T04:19:09;152.32;;;152.32;;
71176;SDS011;58877;51.992;4.504;2022-08-03T04:21:40;143.99;;;143.99;;
71176;SDS011;58877;51.992;4.504;2022-08-03T04:24:10;136.08;;;136.08;;
71176;SDS011;58877;51.992;4.504;2022-08-03T04:26:39;136.41;;;136.40;;
71176;SDS011;58877;51.992;4.504;2022-08-03T04:29:09;136.56;;;136.56;;
71176;SDS011;58877;51.992;4.504;2022-08-03T04:31:37;137.67;;;137.67;;
71176;SDS011;58877;51.992;4.504;2022-08-03T04:34:05;134.81;;;134.81;;
71176;SDS011;58877;51.992;4.504;2022-08-03T04:36:32;147.64;;;147.64;;
71176;SDS011;58877;51.992;4.504;2022-08-03T04:39:05;148.84;;;148.84;;
71176;SDS011;58877;51.992;4.504;2022-08-03T04:41:37;127.80;;;127.80;;
71176;SDS011;58877;51.992;4.504;2022-08-03T04:44:04;124.87;;;124.87;;
71176;SDS011;58877;51.992;4.504;2022-08-03T04:46:33;126.03;;;126.03;;
71176;SDS011;58877;51.992;4.504;2022-08-03T04:49:03;122.01;;;122.01;;
71176;SDS011;58877;51.992;4.504;2022-08-03T04:51:30;112.71;;;112.71;;
71176;SDS011;58877;51.992;4.504;2022-08-03T04:53:59;119.27;;;119.27;;
71176;SDS011;58877;51.992;4.504;2022-08-03T04:56:25;115.36;;;115.36;;
71176;SDS011;58877;51.992;4.504;2022-08-03T04:58:50;105.34;;;105.34;;
71176;SDS011;58877;51.992;4.504;2022-08-03T05:01:17;120.32;;;120.32;;
71176;SDS011;58877;51.992;4.504;2022-08-03T05:03:44;124.31;;;124.31;;
71176;SDS011;58877;51.992;4.504;2022-08-03T05:06:10;117.21;;;117.21;;
71176;SDS011;58877;51.992;4.504;2022-08-03T05:08:36;114.26;;;114.26;;
71176;SDS011;58877;51.992;4.504;2022-08-03T05:11:03;116.12;;;116.12;;
71176;SDS011;58877;51.992;4.504;2022-08-03T05:13:28;108.11;;;108.11;;
71176;SDS011;58877;51.992;4.504;2022-08-03T05:15:54;113.51;;;113.51;;
71176;SDS011;58877;51.992;4.504;2022-08-03T05:18:19;115.45;;;115.45;;
71176;SDS011;58877;51.992;4.504;2022-08-03T05:20:45;113.62;;;113.62;;
71176;SDS011;58877;51.992;4.504;2022-08-03T05:23:11;129.10;;;129.10;;
71176;SDS011;58877;51.992;4.504;2022-08-03T05:25:36;154.20;;;154.20;;
71176;SDS011;58877;51.992;4.504;2022-08-03T05:28:02;142.21;;;142.21;;
71176;SDS011;58877;51.992;4.504;2022-08-03T05:30:28;137.42;;;137.42;;
71176;SDS011;58877;51.992;4.504;2022-08-03T05:32:54;149.56;;;149.56;;
71176;SDS011;58877;51.992;4.504;2022-08-03T05:35:19;128.73;;;128.73;;
71176;SDS011;58877;51.992;4.504;2022-08-03T05:37:45;146.24;;;146.24;;
71176;SDS011;58877;51.992;4.504;2022-08-03T05:40:11;158.14;;;158.14;;
71176;SDS011;58877;51.992;4.504;2022-08-03T05:42:37;143.71;;;143.71;;
71176;SDS011;58877;51.992;4.504;2022-08-03T05:45:03;133.06;;;133.06;;
71176;SDS011;58877;51.992;4.504;2022-08-03T05:47:37;148.78;;;148.78;;
71176;SDS011;58877;51.992;4.504;2022-08-03T05:50:02;175.16;;;175.16;;
71176;SDS011;58877;51.992;4.504;2022-08-03T05:52:28;231.05;;;231.05;;
71176;SDS011;58877;51.992;4.504;2022-08-03T05:54:54;238.58;;;238.58;;
71176;SDS011;58877;51.992;4.504;2022-08-03T05:57:19;292.31;;;292.31;;
71176;SDS011;58877;51.992;4.504;2022-08-03T05:59:45;296.24;;;296.24;;
71176;SDS011;58877;51.992;4.504;2022-08-03T06:02:10;474.86;;;474.86;;
71176;SDS011;58877;51.992;4.504;2022-08-03T06:04:36;563.76;;;563.76;;
71176;SDS011;58877;51.992;4.504;2022-08-03T06:07:02;360.46;;;360.46;;
71176;SDS011;58877;51.992;4.504;2022-08-03T06:09:27;348.76;;;348.76;;
71176;SDS011;58877;51.992;4.504;2022-08-03T06:11:53;492.23;;;492.23;;
71176;SDS011;58877;51.992;4.504;2022-08-03T06:14:19;758.26;;;758.26;;
71176;SDS011;58877;51.992;4.504;2022-08-03T06:16:44;802.65;;;802.65;;
71176;SDS011;58877;51.992;4.504;2022-08-03T06:19:10;898.48;;;898.47;;
71176;SDS011;58877;51.992;4.504;2022-08-03T06:21:35;1225.42;;;1225.42;;
71176;SDS011;58877;51.992;4.504;2022-08-03T06:24:01;1269.51;;;1269.50;;
71176;SDS011;58877;51.992;4.504;2022-08-03T06:26:26;1527.67;;;1522.32;;
71176;SDS011;58877;51.992;4.504;2022-08-03T06:28:52;1526.98;;;1526.98;;
71176;SDS011;58877;51.992;4.504;2022-08-03T06:31:19;1658.63;;;1658.63;;
71176;SDS011;58877;51.992;4.504;2022-08-03T06:33:45;1449.96;;;1449.96;;
71176;SDS011;58877;51.992;4.504;2022-08-03T06:36:10;1778.13;;;1768.80;;
71176;SDS011;58877;51.992;4.504;2022-08-03T06:38:36;1495.31;;;1495.30;;
71176;SDS011;58877;51.992;4.504;2022-08-03T06:41:01;1290.23;;;1290.23;;
71176;SDS011;58877;51.992;4.504;2022-08-03T06:43:27;1494.99;;;1494.98;;
71176;SDS011;58877;51.992;4.504;2022-08-03T06:45:52;1640.90;;;1640.90;;
71176;SDS011;58877;51.992;4.504;2022-08-03T06:48:18;1922.69;;;1918.07;;
71176;SDS011;58877;51.992;4.504;2022-08-03T06:50:43;1431.78;;;1431.78;;
71176;SDS011;58877;51.992;4.504;2022-08-03T06:53:09;1183.33;;;1183.33;;
71176;SDS011;58877;51.992;4.504;2022-08-03T06:55:34;774.82;;;774.82;;
71176;SDS011;58877;51.992;4.504;2022-08-03T06:58:00;593.26;;;593.26;;
71176;SDS011;58877;51.992;4.504;2022-08-03T07:00:26;408.45;;;408.45;;
71176;SDS011;58877;51.992;4.504;2022-08-03T07:02:52;417.81;;;417.81;;
71176;SDS011;58877;51.992;4.504;2022-08-03T07:05:18;441.73;;;441.73;;
71176;SDS011;58877;51.992;4.504;2022-08-03T07:07:44;666.86;;;666.46;;
71176;SDS011;58877;51.992;4.504;2022-08-03T07:10:10;472.19;;;472.19;;
71176;SDS011;58877;51.992;4.504;2022-08-03T07:12:36;596.24;;;596.24;;
71176;SDS011;58877;51.992;4.504;2022-08-03T07:15:03;563.11;;;563.11;;
71176;SDS011;58877;51.992;4.504;2022-08-03T07:17:30;726.66;;;725.95;;
71176;SDS011;58877;51.992;4.504;2022-08-03T07:20:00;601.90;;;601.89;;
71176;SDS011;58877;51.992;4.504;2022-08-03T07:22:31;548.74;;;548.74;;
71176;SDS011;58877;51.992;4.504;2022-08-03T07:24:58;619.23;;;619.22;;
71176;SDS011;58877;51.992;4.504;2022-08-03T07:27:24;1108.80;;;1097.23;;
71176;SDS011;58877;51.992;4.504;2022-08-03T07:29:54;962.75;;;962.75;;
71176;SDS011;58877;51.992;4.504;2022-08-03T07:32:21;1017.51;;;1017.51;;
71176;SDS011;58877;51.992;4.504;2022-08-03T07:34:47;811.58;;;811.58;;
71176;SDS011;58877;51.992;4.504;2022-08-03T07:37:12;789.66;;;789.65;;
71176;SDS011;58877;51.992;4.504;2022-08-03T07:39:38;1427.94;;;1418.74;;
71176;SDS011;58877;51.992;4.504;2022-08-03T07:42:03;1095.64;;;1095.63;;
71176;SDS011;58877;51.992;4.504;2022-08-03T07:44:29;927.99;;;927.99;;
71176;SDS011;58877;51.992;4.504;2022-08-03T07:46:55;889.05;;;889.05;;
71176;SDS011;58877;51.992;4.504;2022-08-03T07:49:21;817.33;;;817.33;;
71176;SDS011;58877;51.992;4.504;2022-08-03T07:51:46;577.61;;;577.61;;
71176;SDS011;58877;51.992;4.504;2022-08-03T07:54:32;382.49;;;382.49;;
71176;SDS011;58877;51.992;4.504;2022-08-03T07:56:57;292.27;;;292.27;;
71176;SDS011;58877;51.992;4.504;2022-08-03T07:59:23;235.36;;;235.36;;
71176;SDS011;58877;51.992;4.504;2022-08-03T08:01:48;233.61;;;233.61;;
71176;SDS011;58877;51.992;4.504;2022-08-03T08:04:17;494.88;;;489.93;;
71176;SDS011;58877;51.992;4.504;2022-08-03T08:06:42;839.16;;;813.97;;
71176;SDS011;58877;51.992;4.504;2022-08-03T08:09:08;501.86;;;501.70;;
71176;SDS011;58877;51.992;4.504;2022-08-03T08:11:33;494.15;;;494.15;;
71176;SDS011;58877;51.992;4.504;2022-08-03T08:13:59;730.16;;;729.29;;
71176;SDS011;58877;51.992;4.504;2022-08-03T08:16:28;804.97;;;804.06;;
71176;SDS011;58877;51.992;4.504;2022-08-03T08:18:56;645.36;;;645.36;;
71176;SDS011;58877;51.992;4.504;2022-08-03T08:21:22;444.40;;;444.40;;
71176;SDS011;58877;51.992;4.504;2022-08-03T08:23:55;314.03;;;314.03;;
71176;SDS011;58877;51.992;4.504;2022-08-03T08:26:20;241.90;;;241.90;;
71176;SDS011;58877;51.992;4.504;2022-08-03T08:28:46;200.02;;;200.02;;
71176;SDS011;58877;51.992;4.504;2022-08-03T08:31:12;154.47;;;154.47;;
71176;SDS011;58877;51.992;4.504;2022-08-03T08:33:37;141.97;;;141.97;;
71176;SDS011;58877;51.992;4.504;2022-08-03T08:36:03;201.98;;;201.98;;
71176;SDS011;58877;51.992;4.504;2022-08-03T08:38:29;141.29;;;141.29;;
71176;SDS011;58877;51.992;4.504;2022-08-03T08:40:54;203.17;;;203.17;;
71176;SDS011;58877;51.992;4.504;2022-08-03T08:43:20;451.42;;;451.10;;
71176;SDS011;58877;51.992;4.504;2022-08-03T08:45:51;290.16;;;290.16;;
71176;SDS011;58877;51.992;4.504;2022-08-03T08:49:01;334.65;;;334.65;;
71176;SDS011;58877;51.992;4.504;2022-08-03T08:51:29;220.69;;;220.69;;
71176;SDS011;58877;51.992;4.504;2022-08-03T08:54:00;216.77;;;216.77;;
71176;SDS011;58877;51.992;4.504;2022-08-03T08:56:27;338.44;;;338.44;;
71176;SDS011;58877;51.992;4.504;2022-08-03T08:58:58;188.18;;;188.18;;
71176;SDS011;58877;51.992;4.504;2022-08-03T09:01:26;215.07;;;215.07;;
71176;SDS011;58877;51.992;4.504;2022-08-03T09:03:52;240.61;;;240.61;;
71176;SDS011;58877;51.992;4.504;2022-08-03T09:06:26;184.87;;;184.87;;
71176;SDS011;58877;51.992;4.504;2022-08-03T09:08:56;212.18;;;212.18;;
71176;SDS011;58877;51.992;4.504;2022-08-03T09:11:22;186.79;;;186.59;;
71176;SDS011;58877;51.992;4.504;2022-08-03T09:13:49;168.28;;;168.28;;
71176;SDS011;58877;51.992;4.504;2022-08-03T09:16:16;167.39;;;167.39;;
71176;SDS011;58877;51.992;4.504;2022-08-03T09:18:45;154.46;;;154.46;;
71176;SDS011;58877;51.992;4.504;2022-08-03T09:23:48;353.87;;;353.79;;
71176;SDS011;58877;51.992;4.504;2022-08-03T09:26:22;212.06;;;212.03;;
71176;SDS011;58877;51.992;4.504;2022-08-03T09:28:54;747.21;;;740.88;;
71176;SDS011;58877;51.992;4.504;2022-08-03T09:31:40;306.88;;;306.82;;
71176;SDS011;58877;51.992;4.504;2022-08-03T09:34:11;226.10;;;226.10;;
71176;SDS011;58877;51.992;4.504;2022-08-03T09:36:45;293.47;;;293.47;;
71176;SDS011;58877;51.992;4.504;2022-08-03T09:39:13;164.90;;;164.90;;
71176;SDS011;58877;51.992;4.504;2022-08-03T09:44:39;169.71;;;169.71;;
71176;SDS011;58877;51.992;4.504;2022-08-03T09:47:10;134.17;;;134.17;;
71176;SDS011;58877;51.992;4.504;2022-08-03T09:49:38;312.53;;;312.25;;
71176;SDS011;58877;51.992;4.504;2022-08-03T09:52:18;147.79;;;147.79;;
71176;SDS011;58877;51.992;4.504;2022-08-03T09:54:49;238.01;;;237.94;;
71176;SDS011;58877;51.992;4.504;2022-08-03T09:57:22;135.89;;;135.89;;
71176;SDS011;58877;51.992;4.504;2022-08-03T09:59:49;142.47;;;142.47;;
71176;SDS011;58877;51.992;4.504;2022-08-03T10:02:20;123.83;;;123.83;;
71176;SDS011;58877;51.992;4.504;2022-08-03T10:04:47;112.97;;;112.97;;
71176;SDS011;58877;51.992;4.504;2022-08-03T10:07:16;83.89;;;83.89;;
71176;SDS011;58877;51.992;4.504;2022-08-03T10:09:59;88.65;;;88.65;;
71176;SDS011;58877;51.992;4.504;2022-08-03T10:12:26;185.82;;;185.41;;
71176;SDS011;58877;51.992;4.504;2022-08-03T10:14:53;92.27;;;92.27;;
71176;SDS011;58877;51.992;4.504;2022-08-03T10:17:20;99.01;;;99.01;;
71176;SDS011;58877;51.992;4.504;2022-08-03T10:19:47;90.96;;;90.96;;
71176;SDS011;58877;51.992;4.504;2022-08-03T10:22:27;83.32;;;83.32;;
71176;SDS011;58877;51.992;4.504;2022-08-03T10:24:58;71.30;;;71.30;;
71176;SDS011;58877;51.992;4.504;2022-08-03T10:27:31;80.93;;;80.93;;
71176;SDS011;58877;51.992;4.504;2022-08-03T10:30:04;47.36;;;47.36;;
71176;SDS011;58877;51.992;4.504;2022-08-03T10:32:47;42.40;;;42.40;;
71176;SDS011;58877;51.992;4.504;2022-08-03T10:35:21;47.50;;;47.50;;
71176;SDS011;58877;51.992;4.504;2022-08-03T10:40:21;39.32;;;39.32;;
71176;SDS011;58877;51.992;4.504;2022-08-03T10:42:48;31.62;;;31.62;;
71176;SDS011;58877;51.992;4.504;2022-08-03T10:45:18;114.09;;;114.09;;
71176;SDS011;58877;51.992;4.504;2022-08-03T10:47:50;32.53;;;32.53;;
71176;SDS011;58877;51.992;4.504;2022-08-03T10:50:17;34.81;;;34.81;;
71176;SDS011;58877;51.992;4.504;2022-08-03T10:55:31;37.14;;;37.14;;
71176;SDS011;58877;51.992;4.504;2022-08-03T11:01:08;17.26;;;17.26;;
71176;SDS011;58877;51.992;4.504;2022-08-03T11:06:17;7.62;;;7.62;;
71176;SDS011;58877;51.992;4.504;2022-08-03T11:09:13;6.71;;;6.71;;
71176;SDS011;58877;51.992;4.504;2022-08-03T11:11:34;8.81;;;8.81;;
71176;SDS011;58877;51.992;4.504;2022-08-03T11:16:47;6.53;;;6.53;;
71176;SDS011;58877;51.992;4.504;2022-08-03T11:19:15;4.89;;;4.89;;
71176;SDS011;58877;51.992;4.504;2022-08-03T11:35:11;15.28;;;15.28;;
71176;SDS011;58877;51.992;4.504;2022-08-03T11:48:50;5.03;;;5.03;;
71176;SDS011;58877;51.992;4.504;2022-08-03T11:53:57;5.51;;;5.51;;
71176;SDS011;58877;51.992;4.504;2022-08-03T11:56:25;4.97;;;4.97;;
71176;SDS011;58877;51.992;4.504;2022-08-03T11:58:53;3.97;;;3.97;;
71176;SDS011;58877;51.992;4.504;2022-08-03T12:01:21;3.90;;;3.90;;
71176;SDS011;58877;51.992;4.504;2022-08-03T12:03:48;4.95;;;4.95;;
71176;SDS011;58877;51.992;4.504;2022-08-03T12:06:15;9.13;;;9.13;;
71176;SDS011;58877;51.992;4.504;2022-08-03T12:08:43;6.32;;;6.32;;
71176;SDS011;58877;51.992;4.504;2022-08-03T12:11:10;4.10;;;4.10;;
71176;SDS011;58877;51.992;4.504;2022-08-03T12:13:44;3.48;;;3.48;;
71176;SDS011;58877;51.992;4.504;2022-08-03T12:16:24;3.39;;;3.39;;
71176;SDS011;58877;51.992;4.504;2022-08-03T12:18:53;2.83;;;2.77;;
71176;SDS011;58877;51.992;4.504;2022-08-03T12:21:20;3.95;;;3.58;;
71176;SDS011;58877;51.992;4.504;2022-08-03T12:23:48;2.82;;;2.52;;
71176;SDS011;58877;51.992;4.504;2022-08-03T12:26:14;2.68;;;2.40;;
71176;SDS011;58877;51.992;4.504;2022-08-03T12:28:46;3.70;;;3.23;;
71176;SDS011;58877;51.992;4.504;2022-08-03T12:31:12;3.40;;;2.85;;
71176;SDS011;58877;51.992;4.504;2022-08-03T12:34:00;2.93;;;2.46;;
71176;SDS011;58877;51.992;4.504;2022-08-03T12:36:29;3.21;;;2.72;;
71176;SDS011;58877;51.992;4.504;2022-08-03T12:38:58;3.26;;;2.72;;
71176;SDS011;58877;51.992;4.504;2022-08-03T12:41:33;3.54;;;2.91;;
71176;SDS011;58877;51.992;4.504;2022-08-03T12:44:05;5.84;;;4.96;;
71176;SDS011;58877;51.992;4.504;2022-08-03T12:46:35;3.16;;;2.93;;
71176;SDS011;58877;51.992;4.504;2022-08-03T12:51:35;5.70;;;5.21;;
71176;SDS011;58877;51.992;4.504;2022-08-03T12:54:08;2.70;;;2.35;;
71176;SDS011;58877;51.992;4.504;2022-08-03T12:59:29;2.95;;;2.66;;
71176;SDS011;58877;51.992;4.504;2022-08-03T13:02:03;2.98;;;2.65;;
71176;SDS011;58877;51.992;4.504;2022-08-03T13:04:32;3.02;;;2.57;;
71176;SDS011;58877;51.992;4.504;2022-08-03T13:07:03;3.36;;;2.87;;
71176;SDS011;58877;51.992;4.504;2022-08-03T13:09:45;5.20;;;4.48;;
71176;SDS011;58877;51.992;4.504;2022-08-03T13:14:46;3.28;;;2.87;;
71176;SDS011;58877;51.992;4.504;2022-08-03T13:17:15;3.24;;;2.80;;
71176;SDS011;58877;51.992;4.504;2022-08-03T13:19:43;4.32;;;3.86;;
71176;SDS011;58877;51.992;4.504;2022-08-03T13:22:17;9.69;;;9.32;;
71176;SDS011;58877;51.992;4.504;2022-08-03T13:24:54;7.17;;;7.17;;
71176;SDS011;58877;51.992;4.504;2022-08-03T13:27:21;2.58;;;2.58;;
71176;SDS011;58877;51.992;4.504;2022-08-03T13:29:48;3.51;;;3.51;;
71176;SDS011;58877;51.992;4.504;2022-08-03T13:32:14;2.17;;;2.16;;
71176;SDS011;58877;51.992;4.504;2022-08-03T13:34:39;3.24;;;3.08;;
71176;SDS011;58877;51.992;4.504;2022-08-03T13:37:19;16.04;;;14.91;;
71176;SDS011;58877;51.992;4.504;2022-08-03T13:40:05;4.31;;;4.13;;
71176;SDS011;58877;51.992;4.504;2022-08-03T13:42:33;8.29;;;8.12;;
71176;SDS011;58877;51.992;4.504;2022-08-03T13:44:59;31.64;;;30.90;;
71176;SDS011;58877;51.992;4.504;2022-08-03T13:47:26;4.18;;;4.16;;
71176;SDS011;58877;51.992;4.504;2022-08-03T13:49:52;11.32;;;11.07;;
71176;SDS011;58877;51.992;4.504;2022-08-03T13:52:18;14.31;;;13.51;;
71176;SDS011;58877;51.992;4.504;2022-08-03T13:54:44;2.95;;;2.88;;
71176;SDS011;58877;51.992;4.504;2022-08-03T13:57:10;2.49;;;2.41;;
71176;SDS011;58877;51.992;4.504;2022-08-03T13:59:38;14.64;;;14.34;;
71176;SDS011;58877;51.992;4.504;2022-08-03T14:02:07;1.88;;;1.87;;
71176;SDS011;58877;51.992;4.504;2022-08-03T14:04:36;1.95;;;1.94;;
71176;SDS011;58877;51.992;4.504;2022-08-03T14:07:04;1.80;;;1.78;;
71176;SDS011;58877;51.992;4.504;2022-08-03T14:09:30;2.18;;;2.14;;
71176;SDS011;58877;51.992;4.504;2022-08-03T14:11:59;1.93;;;1.87;;
71176;SDS011;58877;51.992;4.504;2022-08-03T14:14:27;5.48;;;5.25;;
71176;SDS011;58877;51.992;4.504;2022-08-03T14:16:56;14.30;;;14.25;;
71176;SDS011;58877;51.992;4.504;2022-08-03T14:19:25;2.28;;;2.28;;
71176;SDS011;58877;51.992;4.504;2022-08-03T14:21:53;1.84;;;1.84;;
71176;SDS011;58877;51.992;4.504;2022-08-03T14:24:19;10.83;;;10.73;;
71176;SDS011;58877;51.992;4.504;2022-08-03T14:26:44;4.09;;;4.05;;
71176;SDS011;58877;51.992;4.504;2022-08-03T14:29:10;16.20;;;16.00;;
71176;SDS011;58877;51.992;4.504;2022-08-03T14:31:38;6.87;;;6.61;;
71176;SDS011;58877;51.992;4.504;2022-08-03T14:34:03;9.44;;;9.41;;
71176;SDS011;58877;51.992;4.504;2022-08-03T14:36:29;12.96;;;12.91;;
71176;SDS011;58877;51.992;4.504;2022-08-03T14:38:55;15.77;;;15.37;;
71176;SDS011;58877;51.992;4.504;2022-08-03T14:41:20;2.65;;;2.59;;
71176;SDS011;58877;51.992;4.504;2022-08-03T14:43:46;1.90;;;1.87;;
71176;SDS011;58877;51.992;4.504;2022-08-03T14:46:15;1.82;;;1.72;;
71176;SDS011;58877;51.992;4.504;2022-08-03T14:48:41;9.83;;;9.45;;
71176;SDS011;58877;51.992;4.504;2022-08-03T14:51:07;14.66;;;14.25;;
71176;SDS011;58877;51.992;4.504;2022-08-03T14:53:34;1.83;;;1.81;;
71176;SDS011;58877;51.992;4.504;2022-08-03T14:55:59;3.91;;;3.88;;
71176;SDS011;58877;51.992;4.504;2022-08-03T14:58:28;4.79;;;4.75;;
71176;SDS011;58877;51.992;4.504;2022-08-03T15:00:59;1.44;;;1.42;;
71176;SDS011;58877;51.992;4.504;2022-08-03T15:03:24;7.75;;;7.70;;
71176;SDS011;58877;51.992;4.504;2022-08-03T15:05:53;4.90;;;4.90;;
71176;SDS011;58877;51.992;4.504;2022-08-03T15:08:21;1.40;;;1.40;;
71176;SDS011;58877;51.992;4.504;2022-08-03T15:10:48;6.02;;;6.02;;
71176;SDS011;58877;51.992;4.504;2022-08-03T15:13:14;3.22;;;3.22;;
71176;SDS011;58877;51.992;4.504;2022-08-03T15:15:51;1.97;;;1.97;;
71176;SDS011;58877;51.992;4.504;2022-08-03T15:18:16;3.85;;;3.85;;
71176;SDS011;58877;51.992;4.504;2022-08-03T15:20:42;22.28;;;21.81;;
71176;SDS011;58877;51.992;4.504;2022-08-03T15:23:13;18.97;;;18.82;;
71176;SDS011;58877;51.992;4.504;2022-08-03T15:26:03;18.32;;;18.07;;
71176;SDS011;58877;51.992;4.504;2022-08-03T15:28:31;15.73;;;15.72;;
71176;SDS011;58877;51.992;4.504;2022-08-03T15:31:00;8.30;;;8.25;;